createdAt,value
2022-10-30T00:00:33.193Z,18.75
2022-10-30T00:03:01.347Z,18.67
2022-10-30T00:05:29.424Z,18.69
2022-10-30T00:07:57.352Z,18.64
2022-10-30T00:10:25.854Z,18.64
2022-10-30T00:12:53.264Z,18.71
2022-10-30T00:15:22.091Z,18.60
2022-10-30T00:17:49.566Z,18.56
2022-10-30T00:20:17.075Z,18.43
2022-10-30T00:22:44.455Z,18.41
2022-10-30T00:25:11.866Z,18.45
2022-10-30T00:27:39.284Z,18.53
2022-10-30T00:30:07.856Z,18.49
2022-10-30T00:32:36.540Z,18.52
2022-10-30T00:35:04.630Z,18.32
2022-10-30T00:37:31.999Z,18.46
2022-10-30T00:39:59.383Z,18.52
2022-10-30T00:42:30.135Z,18.52
2022-10-30T00:44:57.682Z,18.49
2022-10-30T00:47:28.702Z,18.45
2022-10-30T00:50:01.956Z,18.52
2022-10-30T00:52:32.639Z,18.49
2022-10-30T00:55:04.048Z,18.38
2022-10-30T00:57:31.503Z,18.35
2022-10-30T00:59:58.880Z,18.33
2022-10-30T01:02:27.207Z,18.26
2022-10-30T01:04:55.895Z,18.28
2022-10-30T01:07:24.899Z,18.25
2022-10-30T01:09:52.320Z,18.24
2022-10-30T01:12:19.716Z,18.19
2022-10-30T01:14:53.516Z,18.42
2022-10-30T01:17:58.449Z,18.39
2022-10-30T01:20:51.330Z,18.27
2022-10-30T01:23:34.985Z,18.14
2022-10-30T01:26:12.376Z,18.13
2022-10-30T01:29:04.006Z,17.99
2022-10-30T01:31:42.053Z,18.06
2022-10-30T01:34:18.595Z,18.03
2022-10-30T01:36:50.583Z,18.16
2022-10-30T01:39:23.481Z,18.33
2022-10-30T01:41:51.162Z,18.64
2022-10-30T01:44:21.818Z,18.68
2022-10-30T01:47:01.823Z,18.39
2022-10-30T01:49:47.116Z,18.22
2022-10-30T01:52:19.947Z,18.08
2022-10-30T01:54:54.739Z,18.13
2022-10-30T01:57:34.825Z,18.03
2022-10-30T02:00:05.527Z,18.01
2022-10-30T02:02:33.777Z,17.90
2022-10-30T02:05:01.939Z,17.94
2022-10-30T02:07:29.442Z,17.76
2022-10-30T02:09:58.243Z,17.74
2022-10-30T02:12:26.481Z,17.75
2022-10-30T02:14:57.695Z,17.72
2022-10-30T02:17:26.445Z,17.78
2022-10-30T02:19:53.839Z,17.72
2022-10-30T02:22:22.873Z,17.59
2022-10-30T02:24:50.301Z,17.63
2022-10-30T02:27:17.757Z,17.59
2022-10-30T02:29:45.144Z,17.50
2022-10-30T02:32:12.559Z,17.51
2022-10-30T02:34:39.930Z,17.54
2022-10-30T02:37:07.319Z,17.58
2022-10-30T02:39:36.027Z,17.67
2022-10-30T02:42:03.443Z,17.53
2022-10-30T02:44:30.802Z,17.47
2022-10-30T02:46:58.223Z,17.45
2022-10-30T02:49:25.603Z,17.50
2022-10-30T02:51:53.054Z,17.58
2022-10-30T02:54:20.454Z,17.46
2022-10-30T02:56:49.212Z,17.46
2022-10-30T02:59:16.576Z,17.46
2022-10-30T03:01:44.160Z,17.41
2022-10-30T03:04:11.621Z,17.43
2022-10-30T03:06:39.039Z,17.28
2022-10-30T03:09:06.551Z,17.46
2022-10-30T03:11:35.468Z,17.48
2022-10-30T03:14:04.403Z,17.38
2022-10-30T03:16:33.503Z,17.28
2022-10-30T03:19:01.030Z,17.40
2022-10-30T03:21:28.916Z,17.41
2022-10-30T03:23:56.952Z,17.46
2022-10-30T03:26:24.674Z,17.36
2022-10-30T03:28:52.085Z,17.25
2022-10-30T03:31:21.033Z,17.15
2022-10-30T03:33:48.511Z,17.22
2022-10-30T03:36:16.363Z,17.25
2022-10-30T03:38:44.115Z,17.26
2022-10-30T03:41:11.486Z,17.44
2022-10-30T03:43:38.873Z,17.51
2022-10-30T03:46:06.617Z,17.55
2022-10-30T03:48:36.108Z,17.44
2022-10-30T03:51:03.514Z,17.41
2022-10-30T03:53:31.163Z,17.46
2022-10-30T03:56:00.150Z,17.49
2022-10-30T03:58:27.814Z,17.51
2022-10-30T04:00:55.288Z,17.41
2022-10-30T04:03:22.711Z,17.57
2022-10-30T04:05:53.782Z,17.71
2022-10-30T04:08:21.178Z,17.67
2022-10-30T04:10:48.910Z,17.56
2022-10-30T04:13:18.706Z,17.68
2022-10-30T04:15:46.084Z,17.86
2022-10-30T04:18:16.243Z,17.69
2022-10-30T04:20:44.182Z,17.77
2022-10-30T04:23:16.826Z,17.67
2022-10-30T04:25:44.590Z,17.81
2022-10-30T04:28:12.578Z,17.90
2022-10-30T04:30:40.556Z,17.68
2022-10-30T04:33:11.008Z,17.62
2022-10-30T04:35:38.707Z,17.75
2022-10-30T04:38:07.542Z,17.75
2022-10-30T04:40:38.313Z,17.84
2022-10-30T04:43:06.716Z,17.72
2022-10-30T04:45:34.546Z,17.70
2022-10-30T04:48:03.636Z,17.71
2022-10-30T04:50:31.762Z,17.79
2022-10-30T04:53:00.397Z,17.74
2022-10-30T04:55:28.308Z,17.61
2022-10-30T04:57:58.655Z,17.60
2022-10-30T05:00:27.767Z,17.69
2022-10-30T05:02:55.173Z,17.76
2022-10-30T05:05:22.570Z,17.65
2022-10-30T05:07:49.952Z,17.64
2022-10-30T05:10:18.354Z,17.61
2022-10-30T05:12:46.627Z,17.65
2022-10-30T05:15:15.741Z,17.56
2022-10-30T05:17:43.171Z,17.61
2022-10-30T05:20:14.793Z,17.71
2022-10-30T05:22:45.266Z,17.63
2022-10-30T05:25:12.682Z,17.61
2022-10-30T05:27:40.059Z,17.48
2022-10-30T05:30:08.662Z,17.53
2022-10-30T05:32:37.392Z,17.67
2022-10-30T05:35:05.419Z,17.78
2022-10-30T05:37:33.031Z,17.70
2022-10-30T05:40:00.385Z,17.69
2022-10-30T05:42:27.786Z,18.05
2022-10-30T05:45:00.791Z,18.11
2022-10-30T05:47:28.750Z,18.09
2022-10-30T05:49:57.425Z,17.32
2022-10-30T05:52:24.811Z,16.40
2022-10-30T05:54:52.202Z,17.05
2022-10-30T05:57:19.635Z,17.44
2022-10-30T05:59:47.019Z,17.69
2022-10-30T06:02:14.522Z,17.80
2022-10-30T06:04:41.927Z,17.80
2022-10-30T06:07:11.253Z,17.70
2022-10-30T06:09:38.646Z,17.78
2022-10-30T06:12:06.327Z,17.94
2022-10-30T06:14:33.714Z,17.96
2022-10-30T06:17:01.090Z,17.78
2022-10-30T06:19:28.466Z,17.81
2022-10-30T06:21:55.887Z,17.89
2022-10-30T06:24:24.581Z,17.79
2022-10-30T06:26:51.965Z,17.85
2022-10-30T06:29:19.387Z,17.81
2022-10-30T06:31:46.833Z,17.89
2022-10-30T06:34:14.223Z,17.85
2022-10-30T06:36:41.683Z,17.85
2022-10-30T06:39:09.120Z,17.93
2022-10-30T06:41:37.939Z,18.13
2022-10-30T06:44:05.558Z,18.13
2022-10-30T06:46:33.927Z,18.03
2022-10-30T06:49:01.495Z,17.48
2022-10-30T06:51:29.182Z,17.45
2022-10-30T06:53:56.574Z,17.85
2022-10-30T06:56:23.934Z,18.04
2022-10-30T06:58:52.838Z,18.07
2022-10-30T07:01:20.320Z,18.20
2022-10-30T07:03:47.724Z,18.02
2022-10-30T07:06:15.177Z,18.16
2022-10-30T07:08:42.581Z,18.21
2022-10-30T07:11:10.022Z,18.26
2022-10-30T07:13:37.414Z,18.28
2022-10-30T07:16:06.640Z,18.25
2022-10-30T07:18:34.023Z,18.27
2022-10-30T07:21:01.393Z,18.43
2022-10-30T07:23:28.769Z,18.32
2022-10-30T07:26:00.874Z,18.33
2022-10-30T07:28:31.538Z,18.32
2022-10-30T07:30:59.030Z,18.31
2022-10-30T07:33:27.770Z,18.29
2022-10-30T07:35:55.172Z,18.42
2022-10-30T07:38:22.609Z,18.53
2022-10-30T07:40:53.322Z,18.63
2022-10-30T07:43:20.788Z,18.59
2022-10-30T07:45:48.178Z,18.36
2022-10-30T07:48:15.559Z,18.49
2022-10-30T07:50:44.228Z,18.65
2022-10-30T07:53:11.687Z,18.69
2022-10-30T07:55:39.065Z,18.56
2022-10-30T07:58:06.437Z,18.69
2022-10-30T08:00:33.971Z,18.76
2022-10-30T08:03:01.862Z,18.80
2022-10-30T08:05:30.406Z,18.85
2022-10-30T08:07:59.583Z,18.89
2022-10-30T08:10:27.301Z,18.97
2022-10-30T08:12:54.795Z,18.93
2022-10-30T08:15:22.274Z,18.97
2022-10-30T08:17:51.882Z,19.08
2022-10-30T08:20:20.866Z,19.03
2022-10-30T08:22:49.330Z,18.86
2022-10-30T08:25:19.858Z,19.08
2022-10-30T08:27:52.320Z,19.00
2022-10-30T08:30:20.070Z,18.98
2022-10-30T08:32:47.511Z,19.07
2022-10-30T08:35:19.818Z,19.13
2022-10-30T08:37:47.766Z,19.08
2022-10-30T08:40:15.410Z,19.18
2022-10-30T08:42:44.180Z,19.24
2022-10-30T08:45:11.874Z,18.71
2022-10-30T08:47:39.288Z,18.93
2022-10-30T08:50:07.003Z,19.22
2022-10-30T08:52:34.437Z,19.35
2022-10-30T08:55:01.813Z,19.60
2022-10-30T08:57:29.573Z,19.79
2022-10-30T08:59:58.252Z,19.90
2022-10-30T09:02:25.743Z,20.07
2022-10-30T09:04:53.194Z,20.09
2022-10-30T09:07:20.654Z,20.08
2022-10-30T09:09:48.163Z,20.14
2022-10-30T09:12:16.207Z,20.35
2022-10-30T09:14:43.619Z,20.33
2022-10-30T09:17:12.576Z,20.33
2022-10-30T09:19:40.302Z,20.33
2022-10-30T09:22:07.797Z,20.37
2022-10-30T09:24:35.224Z,20.27
2022-10-30T09:27:02.652Z,20.23
2022-10-30T09:29:31.169Z,20.27
2022-10-30T09:31:58.572Z,20.43
2022-10-30T09:37:00.196Z,20.49
2022-10-30T09:39:29.935Z,20.52
2022-10-30T09:42:16.322Z,20.67
2022-10-30T09:45:23.222Z,20.82
2022-10-30T09:48:01.661Z,20.55
2022-10-30T09:50:35.852Z,20.40
2022-10-30T09:53:16.374Z,20.78
2022-10-30T09:55:51.102Z,20.78
2022-10-30T09:58:28.966Z,20.92
2022-10-30T10:01:09.763Z,20.89
2022-10-30T10:03:50.021Z,21.06
2022-10-30T10:06:21.185Z,21.10
2022-10-30T10:08:53.086Z,20.70
2022-10-30T10:11:25.314Z,20.95
2022-10-30T10:13:58.730Z,21.18
2022-10-30T10:16:30.089Z,21.19
2022-10-30T10:19:01.412Z,21.31
2022-10-30T10:21:33.834Z,21.29
2022-10-30T10:24:04.171Z,21.28
2022-10-30T10:26:42.043Z,21.45
2022-10-30T10:29:34.800Z,21.49
2022-10-30T10:32:25.290Z,21.59
2022-10-30T10:35:05.709Z,21.42
2022-10-30T10:37:41.914Z,21.54
2022-10-30T10:40:27.733Z,21.55
2022-10-30T10:43:08.128Z,21.61
2022-10-30T10:45:47.333Z,21.61
2022-10-30T10:48:38.070Z,21.44
2022-10-30T10:51:11.513Z,21.61
2022-10-30T10:53:45.794Z,21.59
2022-10-30T10:56:14.713Z,21.55
2022-10-30T10:58:50.287Z,21.48
2022-10-30T11:01:23.709Z,21.41
2022-10-30T11:03:57.490Z,21.26
2022-10-30T11:06:28.154Z,21.42
2022-10-30T11:09:12.644Z,21.12
2022-10-30T11:11:40.088Z,21.04
2022-10-30T11:14:14.879Z,21.30
2022-10-30T11:16:55.191Z,20.92
2022-10-30T11:19:23.325Z,20.82
2022-10-30T11:21:54.357Z,21.15
2022-10-30T11:24:31.612Z,21.28
2022-10-30T11:27:00.650Z,21.71
2022-10-30T11:29:30.178Z,21.66
2022-10-30T11:32:03.147Z,21.62
2022-10-30T11:34:34.221Z,21.67
2022-10-30T11:37:02.514Z,21.68
2022-10-30T11:39:33.983Z,20.96
2022-10-30T11:42:05.324Z,20.65
2022-10-30T11:44:38.728Z,21.47
2022-10-30T11:47:07.546Z,21.44
2022-10-30T11:49:42.026Z,21.69
2022-10-30T11:52:11.034Z,21.33
2022-10-30T11:54:44.795Z,21.46
2022-10-30T11:57:22.121Z,21.52
2022-10-30T11:59:51.708Z,21.88
2022-10-30T12:02:30.433Z,21.96
2022-10-30T12:05:02.931Z,21.63
2022-10-30T12:07:33.375Z,21.71
2022-10-30T12:10:04.018Z,21.30
2022-10-30T12:12:37.256Z,21.40
2022-10-30T12:15:20.873Z,21.15
2022-10-30T12:17:52.565Z,21.41
2022-10-30T12:20:20.783Z,21.23
2022-10-30T12:22:48.265Z,21.08
2022-10-30T12:25:25.263Z,21.01
2022-10-30T12:28:00.264Z,21.51
2022-10-30T12:30:31.916Z,21.85
2022-10-30T12:33:03.196Z,21.44
2022-10-30T12:35:41.687Z,21.51
2022-10-30T12:38:16.532Z,21.68
2022-10-30T12:40:51.192Z,22.19
2022-10-30T12:45:52.182Z,22.31
2022-10-30T12:48:26.833Z,22.57
2022-10-30T12:51:10.438Z,21.90
2022-10-30T12:53:43.659Z,21.46
2022-10-30T12:56:17.287Z,21.40
2022-10-30T12:58:51.330Z,21.46
2022-10-30T13:01:26.939Z,21.87
2022-10-30T13:03:58.312Z,22.05
2022-10-30T13:06:31.298Z,21.97
2022-10-30T13:09:09.244Z,21.33
2022-10-30T13:11:45.155Z,21.76
2022-10-30T13:14:17.532Z,22.09
2022-10-30T13:16:50.027Z,22.13
2022-10-30T13:19:17.488Z,22.59
2022-10-30T13:21:52.540Z,21.79
2022-10-30T13:24:24.725Z,21.83
2022-10-30T13:26:59.092Z,21.66
2022-10-30T13:29:30.298Z,22.10
2022-10-30T13:32:15.578Z,22.41
2022-10-30T13:34:53.298Z,22.16
2022-10-30T13:37:28.022Z,22.21
2022-10-30T13:40:06.883Z,22.16
2022-10-30T13:42:52.347Z,22.37
2022-10-30T13:45:36.451Z,22.45
2022-10-30T13:48:12.427Z,22.09
2022-10-30T13:50:55.624Z,22.49
2022-10-30T13:53:27.245Z,22.58
2022-10-30T13:55:56.765Z,22.49
2022-10-30T13:58:32.983Z,22.46
2022-10-30T14:01:06.821Z,22.19
2022-10-30T14:03:54.149Z,22.41
2022-10-30T14:06:33.591Z,22.33
2022-10-30T14:09:13.141Z,22.29
2022-10-30T14:11:40.575Z,22.05
2022-10-30T14:14:30.009Z,22.31
2022-10-30T14:17:13.624Z,22.07
2022-10-30T14:20:18.508Z,22.31
2022-10-30T14:23:09.734Z,22.60
2022-10-30T14:25:37.272Z,22.53
2022-10-30T14:28:05.618Z,22.45
2022-10-30T14:30:36.694Z,22.06
2022-10-30T14:33:04.277Z,22.23
2022-10-30T14:35:40.077Z,22.15
2022-10-30T14:38:25.157Z,22.28
2022-10-30T14:41:23.302Z,22.15
2022-10-30T14:44:01.842Z,22.20
2022-10-30T14:46:38.300Z,22.08
2022-10-30T14:49:27.799Z,22.21
2022-10-30T14:52:08.930Z,22.13
2022-10-30T14:54:42.368Z,21.97
2022-10-30T14:57:21.983Z,22.09
2022-10-30T14:59:49.405Z,22.15
2022-10-30T15:02:29.717Z,22.26
2022-10-30T15:05:15.974Z,22.13
2022-10-30T15:07:51.303Z,21.88
2022-10-30T15:10:26.768Z,21.98
2022-10-30T15:13:06.444Z,22.09
2022-10-30T15:15:34.843Z,21.95
2022-10-30T15:18:08.700Z,21.88
2022-10-30T15:20:38.910Z,21.77
2022-10-30T15:23:10.844Z,21.65
2022-10-30T15:25:51.190Z,21.68
2022-10-30T15:28:35.615Z,21.70
2022-10-30T15:31:05.612Z,21.61
2022-10-30T15:33:37.645Z,21.63
2022-10-30T15:36:05.991Z,21.48
2022-10-30T15:38:33.489Z,21.51
2022-10-30T15:41:03.952Z,21.40
2022-10-30T15:43:34.334Z,21.25
2022-10-30T15:46:01.852Z,21.16
2022-10-30T15:48:32.138Z,21.08
2022-10-30T15:51:04.262Z,21.02
2022-10-30T15:53:39.235Z,20.97
2022-10-30T15:56:13.689Z,20.98
2022-10-30T15:58:50.295Z,20.95
2022-10-30T16:01:26.539Z,20.83
2022-10-30T16:03:55.337Z,20.87
2022-10-30T16:06:27.032Z,20.81
2022-10-30T16:08:54.579Z,20.76
2022-10-30T16:11:22.913Z,20.66
2022-10-30T16:13:50.928Z,20.53
2022-10-30T16:16:23.145Z,20.62
2022-10-30T16:18:51.331Z,20.66
2022-10-30T16:21:22.022Z,20.61
2022-10-30T16:23:53.044Z,20.57
2022-10-30T16:26:27.471Z,20.46
2022-10-30T16:28:54.864Z,20.42
2022-10-30T16:31:24.312Z,20.36
2022-10-30T16:33:52.019Z,20.32
2022-10-30T16:36:20.603Z,20.20
2022-10-30T16:38:49.617Z,20.19
2022-10-30T16:41:25.718Z,20.20
2022-10-30T16:44:17.215Z,20.16
2022-10-30T16:46:49.311Z,20.01
2022-10-30T16:49:19.100Z,19.89
2022-10-30T16:51:47.511Z,19.89
2022-10-30T16:54:24.503Z,19.96
2022-10-30T16:56:55.668Z,19.99
2022-10-30T16:59:31.167Z,19.90
2022-10-30T17:02:05.718Z,19.80
2022-10-30T17:04:35.384Z,19.80
2022-10-30T17:07:08.902Z,19.83
2022-10-30T17:09:38.786Z,19.70
2022-10-30T17:12:15.595Z,19.76
2022-10-30T17:14:49.727Z,19.89
2022-10-30T17:17:28.967Z,19.98
2022-10-30T17:19:58.950Z,19.90
2022-10-30T17:22:27.910Z,19.86
2022-10-30T17:24:55.713Z,19.84
2022-10-30T17:27:31.365Z,19.80
2022-10-30T17:29:59.387Z,19.80
2022-10-30T17:32:28.601Z,19.73
2022-10-30T17:35:01.853Z,19.56
2022-10-30T17:37:29.624Z,19.53
2022-10-30T17:39:57.029Z,19.56
2022-10-30T17:42:24.639Z,19.44
2022-10-30T17:44:53.367Z,19.40
2022-10-30T17:47:21.760Z,19.44
2022-10-30T17:49:50.028Z,19.51
2022-10-30T17:52:20.547Z,19.46
2022-10-30T17:54:47.962Z,19.31
2022-10-30T17:57:16.237Z,19.32
2022-10-30T17:59:44.150Z,19.41
2022-10-30T18:02:15.715Z,19.36
2022-10-30T18:04:43.975Z,19.24
2022-10-30T18:07:11.550Z,19.22
2022-10-30T18:09:39.419Z,19.12
2022-10-30T18:12:08.855Z,19.17
2022-10-30T18:14:36.246Z,19.20
2022-10-30T18:17:03.773Z,19.11
2022-10-30T18:19:32.954Z,19.16
2022-10-30T18:22:00.322Z,19.24
2022-10-30T18:24:27.694Z,19.32
2022-10-30T18:26:55.409Z,19.14
2022-10-30T18:29:22.811Z,19.22
2022-10-30T18:31:50.220Z,19.26
2022-10-30T18:34:21.051Z,19.20
2022-10-30T18:36:50.140Z,19.12
2022-10-30T18:39:17.770Z,19.15
2022-10-30T18:41:47.046Z,19.06
2022-10-30T18:44:16.057Z,19.00
2022-10-30T18:46:44.010Z,18.91
2022-10-30T18:49:11.598Z,18.87
2022-10-30T18:51:39.324Z,18.84
2022-10-30T18:54:14.602Z,18.72
2022-10-30T18:56:42.298Z,18.76
2022-10-30T18:59:09.754Z,18.91
2022-10-30T19:01:38.364Z,18.99
2022-10-30T19:04:09.800Z,18.80
2022-10-30T19:06:38.543Z,18.72
2022-10-30T19:09:06.066Z,18.68
2022-10-30T19:11:37.334Z,18.71
2022-10-30T19:14:10.753Z,18.61
2022-10-30T19:16:38.140Z,18.73
2022-10-30T19:19:05.550Z,18.62
2022-10-30T19:21:34.590Z,18.56
2022-10-30T19:24:03.877Z,18.69
2022-10-30T19:26:31.269Z,18.86
2022-10-30T19:29:00.038Z,18.62
2022-10-30T19:31:27.471Z,18.78
2022-10-30T19:33:57.495Z,18.72
2022-10-30T19:36:30.393Z,18.76
2022-10-30T19:38:58.633Z,18.73
2022-10-30T19:41:27.451Z,18.48
2022-10-30T19:43:55.018Z,18.22
2022-10-30T19:46:23.744Z,18.26
2022-10-30T19:48:59.564Z,18.29
2022-10-30T19:51:27.966Z,18.46
2022-10-30T19:53:55.500Z,18.53
2022-10-30T19:56:23.198Z,18.54
2022-10-30T19:58:51.066Z,18.45
2022-10-30T20:01:18.723Z,18.52
2022-10-30T20:03:47.603Z,18.56
2022-10-30T20:06:16.501Z,18.55
2022-10-30T20:08:44.565Z,18.54
2022-10-30T20:11:11.969Z,18.63
2022-10-30T20:13:39.423Z,18.60
2022-10-30T20:16:07.515Z,18.57
2022-10-30T20:18:36.592Z,18.02
2022-10-30T20:21:08.305Z,18.06
2022-10-30T20:23:36.191Z,17.92
2022-10-30T20:26:06.300Z,18.21
2022-10-30T20:28:36.948Z,18.41
2022-10-30T20:31:05.301Z,17.53
2022-10-30T20:33:32.754Z,17.33
2022-10-30T20:36:00.235Z,17.60
2022-10-30T20:38:31.449Z,18.02
2022-10-30T20:41:00.243Z,18.14
2022-10-30T20:43:30.355Z,17.88
2022-10-30T20:45:58.191Z,17.60
2022-10-30T20:48:25.799Z,17.60
2022-10-30T20:50:53.718Z,17.74
2022-10-30T20:53:21.204Z,17.89
2022-10-30T20:55:49.987Z,17.79
2022-10-30T20:58:17.383Z,17.71
2022-10-30T21:00:48.463Z,17.72
2022-10-30T21:03:16.929Z,17.89
2022-10-30T21:05:46.279Z,17.66
2022-10-30T21:08:14.768Z,17.49
2022-10-30T21:10:42.862Z,17.47
2022-10-30T21:13:11.877Z,17.31
2022-10-30T21:15:40.005Z,17.26
2022-10-30T21:18:07.567Z,17.21
2022-10-30T21:20:35.239Z,17.14
2022-10-30T21:23:02.660Z,17.21
2022-10-30T21:25:32.112Z,17.35
2022-10-30T21:27:59.642Z,17.39
2022-10-30T21:30:29.037Z,17.43
2022-10-30T21:32:56.438Z,17.46
2022-10-30T21:35:23.902Z,17.44
2022-10-30T21:37:51.355Z,17.22
2022-10-30T21:40:18.809Z,17.09
2022-10-30T21:42:48.653Z,17.19
2022-10-30T21:45:16.155Z,17.30
2022-10-30T21:47:44.936Z,17.35
2022-10-30T21:50:13.038Z,17.32
2022-10-30T21:52:40.836Z,17.30
2022-10-30T21:55:08.838Z,17.23
2022-10-30T21:57:36.340Z,17.23
2022-10-30T22:00:06.144Z,17.32
2022-10-30T22:02:34.865Z,17.22
2022-10-30T22:05:03.661Z,17.15
2022-10-30T22:07:31.282Z,17.31
2022-10-30T22:09:58.698Z,17.20
2022-10-30T22:12:26.129Z,17.11
2022-10-30T22:14:53.533Z,17.15
2022-10-30T22:17:20.996Z,17.18
2022-10-30T22:19:48.443Z,17.18
2022-10-30T22:22:17.135Z,17.14
2022-10-30T22:24:44.544Z,17.16
2022-10-30T22:27:11.975Z,17.17
2022-10-30T22:29:39.387Z,17.20
2022-10-30T22:32:06.794Z,17.26
2022-10-30T22:34:34.221Z,17.19
2022-10-30T22:37:01.593Z,17.07
2022-10-30T22:39:30.301Z,17.06
2022-10-30T22:41:57.714Z,16.87
2022-10-30T22:44:25.097Z,16.95
2022-10-30T22:46:52.648Z,16.91
2022-10-30T22:49:20.066Z,16.85
2022-10-30T22:51:47.479Z,16.83
2022-10-30T22:54:14.883Z,16.83
2022-10-30T22:56:43.640Z,16.97
2022-10-30T22:59:13.641Z,17.08
2022-10-30T23:01:41.723Z,17.15
2022-10-30T23:04:11.253Z,17.05
2022-10-30T23:06:38.753Z,16.81
2022-10-30T23:09:08.559Z,16.95
2022-10-30T23:11:35.971Z,17.17
2022-10-30T23:14:04.767Z,17.20
2022-10-30T23:16:32.430Z,17.05
2022-10-30T23:19:02.112Z,17.27
2022-10-30T23:21:31.356Z,17.14
2022-10-30T23:23:59.773Z,16.89
2022-10-30T23:26:30.392Z,16.77
2022-10-30T23:28:59.461Z,16.72
2022-10-30T23:31:30.129Z,16.69
2022-10-30T23:33:59.417Z,16.73
2022-10-30T23:36:27.830Z,16.64
2022-10-30T23:38:56.376Z,16.56
2022-10-30T23:41:25.739Z,16.61
2022-10-30T23:43:54.412Z,16.58
2022-10-30T23:46:21.965Z,16.60
2022-10-30T23:48:51.031Z,16.58
2022-10-30T23:51:19.181Z,16.48
2022-10-30T23:53:46.705Z,16.47
2022-10-30T23:56:14.223Z,16.47
2022-10-30T23:58:43.762Z,16.52
